createdAt,value
2023-03-21T00:02:05.679Z,8.92
2023-03-21T00:04:52.516Z,9.28
2023-03-21T00:07:39.015Z,8.95
2023-03-21T00:10:37.190Z,9.32
2023-03-21T00:13:23.944Z,9.00
2023-03-21T00:16:24.384Z,9.32
2023-03-21T00:19:10.916Z,9.34
2023-03-21T00:22:06.944Z,9.35
2023-03-21T00:24:53.343Z,9.44
2023-03-21T00:27:53.290Z,9.24
2023-03-21T00:30:41.664Z,9.62
2023-03-21T00:33:25.658Z,9.46
2023-03-21T00:36:12.449Z,9.73
2023-03-21T00:38:57.283Z,9.91
2023-03-21T00:41:43.569Z,9.99
2023-03-21T00:44:27.760Z,9.72
2023-03-21T00:47:13.509Z,9.29
2023-03-21T00:49:57.556Z,9.46
2023-03-21T00:52:41.975Z,9.33
2023-03-21T00:55:26.295Z,9.30
2023-03-21T00:58:12.941Z,9.25
2023-03-21T01:00:57.714Z,9.28
2023-03-21T01:03:50.955Z,9.15
2023-03-21T01:06:40.336Z,9.02
2023-03-21T01:09:26.140Z,9.25
2023-03-21T01:12:10.758Z,9.12
2023-03-21T01:14:56.693Z,9.16
2023-03-21T01:17:40.650Z,8.87
2023-03-21T01:20:24.885Z,9.09
2023-03-21T01:23:09.019Z,9.38
2023-03-21T01:25:55.101Z,9.16
2023-03-21T01:28:40.920Z,9.36
2023-03-21T01:31:26.415Z,9.20
2023-03-21T01:34:10.550Z,9.22
2023-03-21T01:36:54.586Z,9.28
2023-03-21T01:39:38.722Z,8.82
2023-03-21T01:42:22.719Z,9.16
2023-03-21T01:45:46.402Z,9.23
2023-03-21T01:48:34.216Z,8.92
2023-03-21T01:51:19.439Z,8.72
2023-03-21T01:54:17.554Z,8.69
2023-03-21T01:57:05.289Z,8.68
2023-03-21T01:59:51.578Z,8.91
2023-03-21T02:03:06.102Z,8.79
2023-03-21T02:06:10.372Z,8.54
2023-03-21T02:09:01.799Z,8.86
2023-03-21T02:11:47.681Z,8.90
2023-03-21T02:14:35.950Z,8.68
2023-03-21T02:17:35.335Z,9.08
2023-03-21T02:20:54.563Z,9.45
2023-03-21T02:24:26.628Z,9.17
2023-03-21T02:27:15.874Z,9.17
2023-03-21T02:30:52.167Z,8.97
2023-03-21T02:34:22.916Z,9.31
2023-03-21T02:37:18.117Z,9.23
2023-03-21T02:40:12.047Z,8.91
2023-03-21T02:43:04.302Z,9.28
2023-03-21T02:45:56.033Z,9.34
2023-03-21T02:48:50.821Z,8.94
2023-03-21T02:51:38.032Z,9.39
2023-03-21T02:54:38.671Z,9.15
2023-03-21T02:57:40.113Z,9.10
2023-03-21T03:00:29.834Z,8.85
2023-03-21T03:03:24.972Z,8.84
2023-03-21T03:06:20.888Z,8.87
2023-03-21T03:09:30.598Z,9.50
2023-03-21T03:12:23.827Z,8.94
2023-03-21T03:15:17.919Z,9.00
2023-03-21T03:18:12.726Z,8.85
2023-03-21T03:21:05.622Z,9.02
2023-03-21T03:23:54.296Z,9.26
2023-03-21T03:26:42.639Z,9.03
2023-03-21T03:29:29.748Z,8.79
2023-03-21T03:32:18.350Z,8.99
2023-03-21T03:35:04.549Z,8.78
2023-03-21T03:37:52.271Z,9.07
2023-03-21T03:40:42.183Z,8.99
2023-03-21T03:43:44.942Z,9.06
2023-03-21T03:46:32.019Z,9.28
2023-03-21T03:49:20.883Z,9.03
2023-03-21T03:52:10.948Z,9.32
2023-03-21T03:55:00.072Z,8.92
2023-03-21T03:57:50.849Z,9.14
2023-03-21T04:00:36.954Z,9.08
2023-03-21T04:03:22.143Z,9.45
2023-03-21T04:06:07.529Z,9.59
2023-03-21T04:08:51.618Z,9.22
2023-03-21T04:11:35.965Z,9.10
2023-03-21T04:14:19.968Z,9.22
2023-03-21T04:17:06.097Z,8.85
2023-03-21T04:19:55.552Z,9.31
2023-03-21T04:22:42.258Z,8.91
2023-03-21T04:25:33.769Z,9.34
2023-03-21T04:28:22.310Z,9.13
2023-03-21T04:31:25.611Z,9.36
2023-03-21T04:34:24.172Z,9.12
2023-03-21T04:37:13.682Z,9.21
2023-03-21T04:39:58.587Z,9.27
2023-03-21T04:42:42.821Z,9.23
2023-03-21T04:45:26.957Z,9.23
2023-03-21T04:48:11.346Z,9.09
2023-03-21T04:50:56.888Z,9.21
2023-03-21T04:53:44.864Z,9.43
2023-03-21T04:56:32.634Z,9.22
2023-03-21T04:59:18.122Z,9.44
2023-03-21T05:02:02.380Z,9.41
2023-03-21T05:04:48.019Z,9.04
2023-03-21T05:07:33.496Z,9.23
2023-03-21T05:10:18.024Z,9.39
2023-03-21T05:13:02.462Z,8.96
2023-03-21T05:15:46.549Z,8.98
2023-03-21T05:18:35.042Z,9.33
2023-03-21T05:21:29.620Z,9.38
2023-03-21T05:24:19.444Z,8.94
2023-03-21T05:27:03.772Z,9.15
2023-03-21T05:29:55.552Z,9.18
2023-03-21T05:32:39.870Z,9.25
2023-03-21T05:35:27.670Z,9.29
2023-03-21T05:38:14.339Z,9.18
2023-03-21T05:41:08.918Z,9.70
2023-03-21T05:43:53.181Z,9.84
2023-03-21T05:46:37.253Z,9.63
2023-03-21T05:49:22.885Z,9.71
2023-03-21T05:52:11.358Z,9.88
2023-03-21T05:54:55.405Z,9.60
2023-03-21T05:57:42.640Z,9.57
2023-03-21T06:00:41.044Z,9.63
2023-03-21T06:03:36.362Z,9.89
2023-03-21T06:06:33.440Z,9.73
2023-03-21T06:09:18.318Z,9.72
2023-03-21T06:12:09.916Z,9.84
2023-03-21T06:15:05.565Z,9.68
2023-03-21T06:17:56.823Z,9.01
2023-03-21T06:20:41.020Z,9.67
2023-03-21T06:23:28.356Z,10.05
2023-03-21T06:26:12.747Z,9.59
2023-03-21T06:28:56.994Z,10.17
2023-03-21T06:31:42.692Z,10.52
2023-03-21T06:34:26.912Z,10.48
2023-03-21T06:37:11.225Z,10.50
2023-03-21T06:39:55.707Z,10.57
2023-03-21T06:42:40.717Z,10.92
2023-03-21T06:45:27.968Z,11.44
2023-03-21T06:48:13.831Z,11.44
2023-03-21T06:51:08.961Z,11.38
2023-03-21T06:53:57.577Z,11.40
2023-03-21T06:57:02.815Z,11.03
2023-03-21T06:59:50.580Z,10.70
2023-03-21T07:02:40.178Z,11.10
2023-03-21T07:05:30.512Z,10.65
2023-03-21T07:08:14.386Z,10.59
2023-03-21T07:10:58.984Z,10.73
2023-03-21T07:13:43.513Z,10.45
2023-03-21T07:16:27.616Z,10.42
2023-03-21T07:19:11.587Z,9.91
2023-03-21T07:21:57.087Z,10.21
2023-03-21T07:24:41.134Z,9.83
2023-03-21T07:27:25.451Z,10.15
2023-03-21T07:30:11.334Z,10.47
2023-03-21T07:32:55.489Z,10.50
2023-03-21T07:35:40.270Z,9.82
2023-03-21T07:38:26.702Z,9.96
2023-03-21T07:41:11.552Z,10.29
2023-03-21T07:43:55.736Z,10.09
2023-03-21T07:46:42.165Z,10.31
2023-03-21T07:49:26.837Z,10.31
2023-03-21T07:52:10.952Z,9.96
2023-03-21T07:54:56.492Z,10.23
2023-03-21T07:57:40.775Z,10.14
2023-03-21T08:00:25.492Z,10.05
2023-03-21T08:03:09.819Z,10.43
2023-03-21T08:05:53.927Z,9.94
2023-03-21T08:08:37.950Z,10.21
2023-03-21T08:11:23.802Z,10.16
2023-03-21T08:14:07.817Z,10.22
2023-03-21T08:16:51.781Z,10.26
2023-03-21T08:19:35.828Z,10.37
2023-03-21T08:22:19.784Z,10.17
2023-03-21T08:25:05.389Z,10.33
2023-03-21T08:27:52.660Z,10.19
2023-03-21T08:30:37.322Z,9.96
2023-03-21T08:33:21.821Z,10.43
2023-03-21T08:36:08.066Z,10.24
2023-03-21T08:38:56.998Z,10.80
2023-03-21T08:41:41.057Z,11.50
2023-03-21T08:44:27.052Z,11.10
2023-03-21T08:47:10.968Z,11.16
2023-03-21T08:49:56.026Z,11.11
2023-03-21T08:52:41.220Z,10.67
2023-03-21T08:55:25.421Z,10.11
2023-03-21T08:58:10.279Z,9.70
2023-03-21T09:00:55.867Z,9.67
2023-03-21T09:03:40.455Z,9.44
2023-03-21T09:06:24.908Z,10.11
2023-03-21T09:09:09.591Z,10.03
2023-03-21T09:11:53.640Z,10.02
2023-03-21T09:14:37.993Z,9.61
2023-03-21T09:17:23.442Z,10.15
2023-03-21T09:20:11.485Z,10.64
2023-03-21T09:22:55.433Z,9.73
2023-03-21T09:25:40.310Z,9.39
2023-03-21T09:28:25.215Z,9.58
2023-03-21T09:31:11.452Z,10.09
2023-03-21T09:33:58.166Z,10.70
2023-03-21T09:36:42.304Z,10.38
2023-03-21T09:39:27.469Z,9.53
2023-03-21T09:42:31.141Z,9.66
2023-03-21T09:45:20.328Z,9.70
2023-03-21T09:48:07.820Z,9.96
2023-03-21T09:50:53.974Z,10.03
2023-03-21T09:53:41.282Z,10.68
2023-03-21T09:56:26.231Z,10.22
2023-03-21T09:59:19.673Z,10.63
2023-03-21T10:02:04.532Z,10.13
2023-03-21T10:04:49.557Z,10.13
2023-03-21T10:07:40.600Z,10.22
2023-03-21T10:10:28.615Z,10.44
2023-03-21T10:13:17.353Z,10.24
2023-03-21T10:16:11.653Z,10.51
2023-03-21T10:18:57.258Z,10.95
2023-03-21T10:21:59.711Z,11.32
2023-03-21T10:24:46.076Z,10.84
2023-03-21T10:27:29.943Z,11.16
2023-03-21T10:30:26.543Z,10.62
2023-03-21T11:33:59.969Z,15.42
2023-03-21T11:36:51.556Z,15.51
2023-03-21T11:39:41.317Z,14.82
2023-03-21T11:42:30.487Z,14.67
2023-03-21T11:45:16.486Z,14.59
2023-03-21T11:48:02.407Z,14.74
2023-03-21T11:50:50.076Z,14.81
2023-03-21T11:53:41.866Z,14.12
2023-03-21T11:56:29.564Z,13.01
2023-03-21T11:59:30.223Z,14.00
2023-03-21T12:02:38.099Z,14.13
2023-03-21T12:05:29.922Z,13.96
2023-03-21T12:08:25.148Z,13.86
2023-03-21T12:11:18.758Z,13.68
2023-03-21T12:14:12.169Z,13.50
2023-03-21T12:17:07.363Z,13.41
2023-03-21T12:20:17.983Z,13.50
2023-03-21T12:23:17.330Z,13.82
2023-03-21T12:26:11.800Z,14.17
2023-03-21T12:29:21.028Z,13.17
2023-03-21T12:32:30.717Z,13.16
2023-03-21T12:35:32.389Z,13.18
2023-03-21T12:38:19.419Z,13.39
2023-03-21T12:41:20.962Z,13.64
2023-03-21T12:44:10.114Z,12.88
2023-03-21T12:46:59.628Z,13.27
2023-03-21T12:49:49.957Z,13.87
2023-03-21T12:52:40.004Z,13.38
2023-03-21T12:55:26.655Z,13.12
2023-03-21T12:58:18.714Z,13.31
2023-03-21T13:01:06.839Z,12.53
2023-03-21T13:03:58.655Z,12.86
2023-03-21T13:06:44.481Z,11.85
2023-03-21T13:09:37.768Z,12.07
2023-03-21T13:12:43.232Z,11.69
2023-03-21T13:15:48.387Z,11.97
2023-03-21T13:18:50.267Z,12.38
2023-03-21T13:21:50.645Z,12.15
2023-03-21T13:24:40.072Z,11.55
2023-03-21T13:27:30.246Z,12.23
2023-03-21T13:30:21.986Z,11.82
2023-03-21T13:33:08.497Z,12.19
2023-03-21T13:36:05.503Z,11.89
2023-03-21T13:38:52.922Z,12.00
2023-03-21T13:41:39.029Z,11.89
2023-03-21T13:44:27.044Z,11.53
2023-03-21T13:47:30.884Z,11.46
2023-03-21T13:50:36.590Z,11.59
2023-03-21T13:53:24.839Z,11.19
2023-03-21T13:56:25.431Z,11.23
2023-03-21T13:59:12.348Z,11.31
2023-03-21T14:02:02.050Z,10.82
2023-03-21T14:05:04.216Z,10.51
2023-03-21T14:07:54.771Z,10.63
2023-03-21T14:10:44.855Z,11.03
2023-03-21T14:13:29.788Z,11.10
2023-03-21T14:16:18.015Z,10.90
2023-03-21T14:19:05.191Z,11.31
2023-03-21T14:21:53.589Z,10.95
2023-03-21T14:24:37.560Z,11.29
2023-03-21T14:27:23.861Z,10.68
2023-03-21T14:30:13.077Z,10.87
2023-03-21T14:32:59.905Z,10.82
2023-03-21T14:35:44.096Z,10.98
2023-03-21T14:38:33.483Z,11.28
2023-03-21T14:41:24.459Z,10.41
2023-03-21T14:44:19.186Z,10.24
2023-03-21T14:47:06.658Z,9.82
2023-03-21T14:49:51.521Z,10.10
2023-03-21T14:52:37.206Z,9.98
2023-03-21T14:55:21.901Z,9.71
2023-03-21T14:58:06.743Z,10.25
2023-03-21T15:00:55.822Z,9.96
2023-03-21T15:03:39.769Z,10.23
2023-03-21T15:06:23.786Z,9.86
2023-03-21T15:09:10.127Z,10.03
2023-03-21T15:11:57.418Z,10.44
2023-03-21T15:14:41.805Z,10.48
2023-03-21T15:17:28.407Z,10.84
2023-03-21T15:20:16.578Z,10.42
2023-03-21T15:23:04.826Z,10.45
2023-03-21T15:25:48.712Z,10.98
2023-03-21T15:28:34.631Z,11.02
2023-03-21T15:31:21.013Z,10.68
2023-03-21T15:34:07.127Z,10.67
2023-03-21T15:36:56.282Z,10.86
2023-03-21T15:39:40.272Z,10.89
2023-03-21T15:42:33.365Z,10.90
2023-03-21T15:45:23.626Z,10.89
2023-03-21T15:48:10.545Z,10.99
2023-03-21T15:51:02.845Z,10.70
2023-03-21T15:53:46.994Z,10.86
2023-03-21T15:56:37.370Z,10.70
2023-03-21T15:59:22.544Z,10.58
2023-03-21T16:02:07.430Z,10.68
2023-03-21T16:05:02.639Z,10.79
2023-03-21T16:07:48.858Z,10.42
2023-03-21T16:10:37.010Z,10.66
2023-03-21T16:13:21.148Z,10.67
2023-03-21T16:16:05.124Z,10.81
2023-03-21T16:18:49.750Z,10.56
2023-03-21T16:21:34.301Z,10.57
2023-03-21T16:24:19.653Z,10.54
2023-03-21T16:27:03.589Z,10.67
2023-03-21T16:29:47.749Z,10.63
2023-03-21T16:32:31.722Z,10.44
2023-03-21T16:35:16.340Z,10.10
2023-03-21T16:38:00.460Z,10.49
2023-03-21T16:40:46.017Z,10.62
2023-03-21T16:43:29.938Z,10.27
2023-03-21T16:46:15.382Z,10.29
2023-03-21T16:48:59.933Z,10.39
2023-03-21T16:51:44.047Z,10.46
2023-03-21T16:54:28.238Z,10.34
2023-03-21T16:57:27.731Z,9.87
2023-03-21T17:00:16.980Z,10.13
2023-03-21T17:03:03.344Z,10.00
2023-03-21T17:05:47.658Z,10.22
2023-03-21T17:08:31.696Z,10.16
2023-03-21T17:11:20.260Z,10.24
2023-03-21T17:14:05.838Z,10.11
2023-03-21T17:16:50.091Z,9.81
2023-03-21T17:19:34.143Z,9.79
2023-03-21T17:22:18.079Z,8.68
2023-03-21T17:25:03.351Z,8.75
2023-03-21T17:27:48.390Z,9.55
2023-03-21T17:30:35.913Z,9.41
2023-03-21T17:33:20.119Z,9.66
2023-03-21T17:36:05.817Z,10.09
2023-03-21T17:38:50.007Z,10.09
2023-03-21T17:41:34.737Z,9.44
2023-03-21T17:44:18.999Z,9.44
2023-03-21T17:47:04.562Z,9.18
2023-03-21T17:49:48.457Z,9.44
2023-03-21T17:52:32.525Z,9.47
2023-03-21T17:55:18.004Z,9.19
2023-03-21T17:58:02.349Z,9.28
2023-03-21T18:00:47.052Z,9.21
2023-03-21T18:03:32.923Z,9.54
2023-03-21T18:06:18.486Z,9.55
2023-03-21T18:09:07.939Z,9.59
2023-03-21T18:11:52.007Z,9.73
2023-03-21T18:14:40.436Z,9.61
2023-03-21T18:17:24.924Z,9.09
2023-03-21T18:20:14.977Z,9.52
2023-03-21T18:22:58.906Z,9.30
2023-03-21T18:25:43.070Z,8.99
2023-03-21T18:28:27.248Z,9.01
2023-03-21T18:31:19.758Z,9.21
2023-03-21T18:34:04.168Z,9.04
2023-03-21T18:36:49.778Z,9.26
2023-03-21T18:39:33.873Z,9.43
2023-03-21T18:42:20.447Z,9.30
2023-03-21T18:45:10.106Z,9.31
2023-03-21T18:47:54.121Z,9.47
2023-03-21T18:50:38.471Z,9.23
2023-03-21T18:53:24.132Z,9.37
2023-03-21T18:56:10.564Z,9.18
2023-03-21T18:58:54.793Z,9.72
2023-03-21T19:01:39.280Z,9.57
2023-03-21T19:04:29.891Z,9.72
2023-03-21T19:07:14.702Z,9.58
2023-03-21T19:10:16.434Z,9.20
2023-03-21T19:13:02.375Z,9.27
2023-03-21T19:15:49.393Z,9.61
2023-03-21T19:18:52.161Z,9.01
2023-03-21T19:21:37.895Z,8.77
2023-03-21T19:24:28.348Z,8.99
2023-03-21T19:27:14.846Z,9.02
2023-03-21T19:30:13.581Z,9.54
2023-03-21T19:32:58.250Z,9.58
2023-03-21T19:35:43.123Z,9.75
2023-03-21T19:38:27.738Z,9.91
2023-03-21T19:41:11.844Z,9.73
2023-03-21T19:43:57.761Z,9.63
2023-03-21T19:46:42.124Z,9.54
2023-03-21T19:49:37.473Z,8.87
2023-03-21T19:52:32.123Z,9.04
2023-03-21T19:55:16.252Z,9.16
2023-03-21T19:58:00.527Z,9.52
2023-03-21T20:00:46.399Z,9.37
2023-03-21T20:03:30.892Z,9.87
2023-03-21T20:06:15.386Z,10.00
2023-03-21T20:12:05.789Z,9.88
2023-03-21T20:14:56.007Z,9.85
2023-03-21T20:17:50.726Z,10.02
2023-03-21T20:20:34.989Z,10.01
2023-03-21T20:23:19.681Z,10.08
2023-03-21T20:26:09.433Z,9.80
2023-03-21T20:29:27.878Z,9.62
2023-03-21T20:32:01.181Z,9.81
2023-03-21T20:34:46.783Z,9.45
2023-03-21T20:37:30.975Z,9.55
2023-03-21T20:40:17.555Z,9.61
2023-03-21T20:43:28.451Z,9.67
2023-03-21T20:46:10.247Z,9.59
2023-03-21T20:48:54.873Z,9.06
2023-03-21T20:54:45.792Z,9.28
2023-03-21T20:57:30.310Z,9.84
2023-03-21T21:00:17.287Z,9.43
2023-03-21T21:03:01.372Z,9.66
2023-03-21T21:05:46.744Z,9.82
2023-03-21T21:08:32.333Z,9.61
2023-03-21T21:12:04.727Z,9.82
2023-03-21T21:14:22.581Z,9.64
2023-03-21T21:17:24.588Z,9.76
2023-03-21T21:20:16.940Z,9.52
2023-03-21T21:23:01.164Z,9.80
2023-03-21T21:25:46.776Z,9.52
2023-03-21T21:28:32.329Z,9.39
2023-03-21T21:31:18.497Z,9.51
2023-03-21T21:34:03.351Z,9.52
2023-03-21T21:36:47.546Z,9.56
2023-03-21T21:39:36.571Z,9.54
2023-03-21T21:42:21.885Z,9.37
2023-03-21T21:45:07.194Z,9.55
2023-03-21T21:47:51.226Z,9.10
2023-03-21T21:50:36.314Z,9.66
2023-03-21T21:53:20.422Z,9.78
2023-03-21T21:56:04.491Z,9.61
2023-03-21T21:58:52.343Z,9.82
2023-03-21T22:01:38.720Z,9.94
2023-03-21T22:04:28.650Z,9.94
2023-03-21T22:07:14.892Z,9.85
2023-03-21T22:09:58.917Z,9.93
2023-03-21T22:12:43.043Z,9.83
2023-03-21T22:15:28.949Z,9.66
2023-03-21T22:18:12.968Z,9.80
2023-03-21T22:20:57.172Z,9.81
2023-03-21T22:23:43.123Z,9.73
2023-03-21T22:26:27.378Z,9.28
2023-03-21T22:29:11.377Z,9.22
2023-03-21T22:31:57.431Z,9.70
2023-03-21T22:34:41.720Z,9.92
2023-03-21T22:37:26.149Z,9.92
2023-03-21T22:40:13.245Z,9.23
2023-03-21T22:42:57.329Z,9.19
2023-03-21T22:45:42.463Z,9.55
2023-03-21T22:48:30.380Z,9.69
2023-03-21T22:51:14.408Z,9.76
2023-03-21T22:53:58.551Z,9.84
2023-03-21T22:56:42.517Z,9.72
2023-03-21T22:59:26.721Z,9.58
2023-03-21T23:02:11.033Z,9.94
2023-03-21T23:04:56.577Z,9.78
2023-03-21T23:07:40.978Z,9.70
2023-03-21T23:10:25.184Z,9.68
2023-03-21T23:13:09.384Z,9.83
2023-03-21T23:15:53.736Z,9.90
2023-03-21T23:18:38.773Z,9.91
2023-03-21T23:21:25.608Z,10.02
2023-03-21T23:24:10.807Z,9.61
2023-03-21T23:26:54.730Z,9.77
2023-03-21T23:29:38.662Z,9.32
2023-03-21T23:32:22.691Z,9.38
2023-03-21T23:35:07.848Z,9.39
2023-03-21T23:37:53.416Z,9.37
2023-03-21T23:40:40.705Z,9.60
2023-03-21T23:43:25.140Z,9.47
2023-03-21T23:46:09.751Z,9.66
2023-03-21T23:48:53.777Z,9.38
2023-03-21T23:51:39.000Z,9.50
2023-03-21T23:54:24.482Z,9.49
2023-03-21T23:57:08.425Z,9.93
2023-03-21T23:59:55.543Z,10.07
